createdAt,value
2022-12-03T02:58:24.390Z,71.00
2022-12-03T03:03:30.786Z,81.20
2022-12-03T03:08:37.646Z,81.20
2022-12-03T03:13:42.157Z,81.20
2022-12-03T03:18:45.896Z,81.20
2022-12-03T03:23:49.793Z,81.00
2022-12-03T03:28:58.287Z,81.00
2022-12-03T03:34:02.478Z,80.90
2022-12-03T03:39:07.860Z,80.70
2022-12-03T03:44:11.662Z,80.50
2022-12-03T03:49:17.158Z,80.30
2022-12-03T03:54:22.027Z,80.20
2022-12-03T03:59:26.968Z,80.20
2022-12-03T04:04:36.777Z,80.20
2022-12-03T04:09:42.034Z,80.20
2022-12-03T04:14:47.838Z,80.20
2022-12-03T04:19:52.683Z,80.30
2022-12-03T04:25:16.808Z,80.30
2022-12-03T04:30:21.182Z,80.40
2022-12-03T04:35:44.552Z,80.60
2022-12-03T04:41:01.010Z,80.60
2022-12-03T04:46:07.101Z,80.70
2022-12-03T04:51:11.398Z,80.60
2022-12-03T04:56:15.750Z,80.70
2022-12-03T05:01:21.638Z,80.70
2022-12-03T05:06:26.395Z,80.80
2022-12-03T05:11:30.647Z,80.80
2022-12-03T05:16:35.465Z,80.70
2022-12-03T05:21:39.136Z,81.00
2022-12-03T05:26:44.305Z,80.80
2022-12-03T05:31:48.764Z,80.80
2022-12-03T05:36:53.736Z,80.90
2022-12-03T05:42:16.509Z,80.60
2022-12-03T05:47:21.153Z,80.60
2022-12-03T05:52:25.909Z,80.70
2022-12-03T05:57:31.361Z,80.90
2022-12-03T06:02:36.252Z,81.10
2022-12-03T06:07:40.191Z,81.00
2022-12-03T06:12:44.683Z,81.00
2022-12-03T06:17:49.669Z,81.10
2022-12-03T06:22:54.268Z,81.20
2022-12-03T06:27:59.256Z,81.20
2022-12-03T06:33:03.536Z,81.40
2022-12-03T06:38:08.016Z,81.20
2022-12-03T06:43:11.313Z,81.30
2022-12-03T06:48:15.895Z,81.30
2022-12-03T06:53:20.765Z,81.40
2022-12-03T06:58:25.852Z,81.50
2022-12-03T07:03:30.191Z,81.70
2022-12-03T07:08:33.892Z,81.80
2022-12-03T07:13:39.130Z,81.80
2022-12-03T07:18:44.291Z,81.90
2022-12-03T07:23:48.519Z,82.10
2022-12-03T07:28:52.949Z,81.90
2022-12-03T07:33:58.190Z,81.90
2022-12-03T07:39:02.707Z,82.10
2022-12-03T07:44:13.744Z,82.10
2022-12-03T07:49:19.522Z,82.10
2022-12-03T07:54:24.648Z,82.10
2022-12-03T07:59:30.163Z,82.10
2022-12-03T08:04:35.205Z,82.20
2022-12-03T08:09:41.143Z,82.40
2022-12-03T08:14:47.038Z,82.50
2022-12-03T08:19:54.278Z,82.60
2022-12-03T08:25:03.499Z,82.40
2022-12-03T08:30:08.677Z,82.20
2022-12-03T08:35:15.713Z,82.10
2022-12-03T08:40:28.839Z,82.20
2022-12-03T08:45:40.496Z,82.00
2022-12-03T08:50:45.808Z,81.80
2022-12-03T08:56:18.920Z,81.50
2022-12-03T09:01:34.460Z,81.50
2022-12-03T09:06:39.623Z,81.50
2022-12-03T09:11:44.602Z,81.20
2022-12-03T09:16:49.781Z,80.80
2022-12-03T09:21:55.439Z,80.40
2022-12-03T09:27:01.668Z,80.30
2022-12-03T09:32:05.974Z,80.40
2022-12-03T09:37:10.870Z,80.20
2022-12-03T09:42:16.792Z,80.20
2022-12-03T09:47:22.031Z,79.70
2022-12-03T09:52:32.324Z,79.40
2022-12-03T09:57:36.738Z,79.10
2022-12-03T10:02:42.579Z,78.70
2022-12-03T10:07:47.708Z,78.60
2022-12-03T10:12:53.030Z,78.50
2022-12-03T10:17:58.569Z,78.30
2022-12-03T10:23:04.045Z,78.00
2022-12-03T10:28:09.172Z,77.90
2022-12-03T10:33:18.836Z,77.70
2022-12-03T10:38:25.098Z,77.90
2022-12-03T10:43:30.148Z,77.90
2022-12-03T10:48:38.152Z,78.00
2022-12-03T10:53:44.655Z,78.00
2022-12-03T10:58:51.061Z,77.30
2022-12-03T11:04:04.243Z,77.20
2022-12-03T11:09:22.673Z,77.20
2022-12-03T11:14:52.257Z,76.90
2022-12-03T11:19:58.153Z,76.90
2022-12-03T11:25:27.620Z,77.00
2022-12-03T11:30:51.188Z,77.10
2022-12-03T11:36:05.775Z,77.30
2022-12-03T11:41:20.122Z,77.50
2022-12-03T11:46:25.548Z,77.50
2022-12-03T11:51:31.348Z,77.60
2022-12-03T11:56:37.417Z,77.80
2022-12-03T12:01:45.557Z,77.90
2022-12-03T12:06:53.539Z,78.30
2022-12-03T12:12:19.653Z,78.60
2022-12-03T12:17:37.392Z,78.90
2022-12-03T12:22:42.364Z,79.00
2022-12-03T12:27:51.224Z,79.10
2022-12-03T12:33:26.332Z,79.30
2022-12-03T12:38:29.879Z,79.60
2022-12-03T12:43:39.004Z,79.60
2022-12-03T12:48:43.665Z,79.50
2022-12-03T12:53:48.211Z,79.20
2022-12-03T12:58:53.998Z,79.00
2022-12-03T13:03:59.120Z,78.60
2022-12-03T13:09:03.237Z,78.50
2022-12-03T13:14:31.338Z,78.30
2022-12-03T13:19:46.650Z,77.70
2022-12-03T13:25:50.591Z,77.50
2022-12-03T13:30:49.485Z,77.50
2022-12-03T13:35:57.312Z,77.60
2022-12-03T13:41:04.256Z,77.50
2022-12-03T13:46:10.915Z,77.70
2022-12-03T13:51:24.863Z,77.70
2022-12-03T13:56:30.543Z,77.80
2022-12-03T14:01:35.218Z,77.50
2022-12-03T14:06:39.944Z,77.60
2022-12-03T14:12:02.135Z,77.60
2022-12-03T14:17:06.902Z,77.50
2022-12-03T14:22:11.191Z,78.00
2022-12-03T14:27:17.414Z,77.80
2022-12-03T14:32:21.811Z,77.80
2022-12-03T14:37:26.858Z,77.70
2022-12-03T14:42:32.192Z,77.80
2022-12-03T14:47:36.577Z,78.10
2022-12-03T14:52:41.067Z,78.20
2022-12-03T14:57:46.052Z,78.30
2022-12-03T15:02:50.639Z,78.20
2022-12-03T15:07:55.442Z,78.50
2022-12-03T15:12:59.374Z,78.50
2022-12-03T15:18:03.916Z,78.60
2022-12-03T15:23:14.052Z,78.90
2022-12-03T15:28:19.425Z,78.90
2022-12-03T15:33:23.383Z,78.80
2022-12-03T15:38:29.413Z,79.10
2022-12-03T15:43:34.748Z,79.10
2022-12-03T15:48:39.751Z,79.50
2022-12-03T15:53:44.730Z,79.10
2022-12-03T15:58:49.676Z,79.80
2022-12-03T16:03:53.711Z,79.80
2022-12-03T16:08:58.053Z,79.70
2022-12-03T16:14:02.195Z,79.70
2022-12-03T16:19:07.976Z,79.60
2022-12-03T16:24:12.843Z,79.50
2022-12-03T16:29:18.695Z,79.30
2022-12-03T16:34:26.354Z,79.20
2022-12-03T16:39:31.530Z,78.80
2022-12-03T16:44:56.048Z,78.60
2022-12-03T16:50:00.469Z,78.40
2022-12-03T16:55:05.339Z,78.30
2022-12-03T17:00:11.534Z,78.10
2022-12-03T17:05:16.162Z,78.10
2022-12-03T17:10:21.284Z,78.10
2022-12-03T17:15:26.055Z,78.00
2022-12-03T17:20:31.896Z,78.30
2022-12-03T17:25:37.100Z,78.40
2022-12-03T17:30:41.404Z,78.70
2022-12-03T17:35:59.049Z,79.00
2022-12-03T17:41:04.513Z,79.40
2022-12-03T17:46:08.921Z,80.20
2022-12-03T17:51:14.053Z,80.40
2022-12-03T17:56:19.615Z,80.80
2022-12-03T18:01:24.383Z,81.70
2022-12-03T18:06:29.964Z,81.80
2022-12-03T18:11:37.589Z,82.10
2022-12-03T18:16:43.187Z,82.10
2022-12-03T18:21:47.995Z,82.40
2022-12-03T18:26:52.016Z,82.60
2022-12-03T18:31:56.860Z,82.70
2022-12-03T18:37:01.869Z,82.80
2022-12-03T18:42:21.351Z,83.00
2022-12-03T18:47:29.375Z,83.50
2022-12-03T18:52:34.151Z,83.40
2022-12-03T18:57:38.431Z,83.50
2022-12-03T19:08:15.366Z,84.00
2022-12-03T19:13:20.733Z,84.10
2022-12-03T19:18:25.574Z,83.90
2022-12-03T19:23:30.753Z,84.30
2022-12-03T19:28:35.758Z,84.40
2022-12-03T19:33:40.041Z,84.50
2022-12-03T19:38:56.942Z,84.60
2022-12-03T19:44:06.311Z,84.80
2022-12-03T19:49:13.422Z,84.90
2022-12-03T19:54:18.686Z,84.90
2022-12-03T19:59:27.345Z,85.00
2022-12-03T20:04:31.834Z,84.90
2022-12-03T20:09:36.393Z,85.40
2022-12-03T20:14:43.870Z,85.20
2022-12-03T20:19:48.035Z,85.20
2022-12-03T20:24:53.569Z,85.10
2022-12-03T20:29:57.896Z,85.10
2022-12-03T20:35:03.917Z,85.10
2022-12-03T20:40:10.282Z,84.90
2022-12-03T20:45:15.471Z,84.70
2022-12-03T20:50:20.561Z,84.70
2022-12-03T20:55:25.268Z,84.60
2022-12-03T21:00:30.319Z,84.50
2022-12-03T21:05:35.273Z,84.50
2022-12-03T21:10:47.726Z,84.70
2022-12-03T21:16:02.474Z,84.60
2022-12-03T21:21:07.955Z,84.50
2022-12-03T21:26:33.388Z,84.50
2022-12-03T21:31:38.583Z,84.40
2022-12-03T21:36:42.432Z,84.50
2022-12-03T21:42:18.707Z,84.40
2022-12-03T21:47:14.500Z,84.80
2022-12-03T21:52:19.448Z,83.90
2022-12-03T21:57:24.072Z,84.00
2022-12-03T22:02:28.386Z,84.10
2022-12-03T22:07:37.656Z,84.50
2022-12-03T22:12:42.785Z,84.40
2022-12-03T22:17:48.114Z,84.50
2022-12-03T22:22:52.253Z,84.80
2022-12-03T22:27:57.428Z,84.50
2022-12-03T22:33:01.750Z,84.50
2022-12-03T22:38:06.403Z,84.30
2022-12-03T22:43:11.734Z,84.20
2022-12-03T22:48:15.995Z,84.60
2022-12-03T22:53:21.581Z,84.50
2022-12-03T22:58:27.295Z,84.50
2022-12-03T23:03:31.749Z,84.50
2022-12-03T23:08:36.333Z,84.30
2022-12-03T23:13:41.575Z,84.30
2022-12-03T23:18:46.369Z,84.10
2022-12-03T23:23:51.755Z,83.90
2022-12-03T23:28:56.200Z,83.80
2022-12-03T23:34:01.030Z,83.40
2022-12-03T23:39:05.952Z,83.10
2022-12-03T23:44:10.502Z,82.90
2022-12-03T23:49:14.877Z,82.40
2022-12-03T23:54:19.475Z,82.10
2022-12-03T23:59:23.986Z,81.70
